Sunday, September 23, 2018, 12:30 AM EDT
Back to Local

KFKL, Franklin, Venango Regional Airport

Location: Franklin, PA, United States Lat: 41.383
Local Time: 12:30 AM EDT ( 4:30 GMT) Lon: -79.867
Time Zone: US/Eastern Elev: 1538 ft

Show me the last for .
Show Decoded

2018-09-23 00:01 METAR KFKL 230401Z AUTO 04003KT 3SM BR SCT001 11/10 A3023 RMK AO2 =
2018-09-22 23:56 METAR KFKL 230356Z AUTO 04003KT 2SM BR BKN001 11/10 A3023 RMK AO2 VIS 1 1/4V4
                 SLP242 T01060100 =
2018-09-22 23:51 METAR KFKL 230351Z AUTO 05003KT 2 1/2SM BR SCT001 11/10 A3024 RMK AO2 VIS 1
                 1/4V5 =
2018-09-22 22:56 METAR KFKL 230256Z AUTO 00000KT 10SM CLR 11/10 A3024 RMK AO2 SLP243 T01110100
                 52002 =
2018-09-22 21:56 METAR KFKL 230156Z AUTO 05003KT 6SM BR CLR 11/11 A3024 RMK AO2 SLP242 T01110106
                 =
2018-09-22 20:56 METAR KFKL 230056Z AUTO 00000KT 8SM CLR 12/10 A3024 RMK AO2 SLP242 T01220100 =
2018-09-22 19:56 METAR KFKL 222356Z AUTO 08003KT 10SM CLR 12/10 A3023 RMK AO2 SLP241 6////
                 T01220100 10150 20117 58004 =
2018-09-22 18:56 METAR KFKL 222256Z AUTO 00000KT 10SM CLR 13/10 A3024 RMK AO2 SLP244 T01280100 =
2018-09-22 18:30 METAR KFKL 222230Z AUTO 05003KT 10SM SCT029 14/09 A3024 RMK AO2 =
2018-09-22 17:56 METAR KFKL 222156Z AUTO 00000KT 10SM OVC029 14/09 A3024 RMK AO2 SLP242 T01440094
                 =
2018-09-22 17:03 METAR KFKL 222103Z AUTO 00000KT 10SM OVC029 15/09 A3024 RMK AO2 =
2018-09-22 16:56 METAR KFKL 222056Z AUTO 00000KT 10SM OVC031 15/09 A3025 RMK AO2 SLP243 T01500089
                 56006 =
2018-09-22 16:23 METAR KFKL 222023Z AUTO 00000KT 10SM BKN031 15/08 A3025 RMK AO2 =
2018-09-22 16:03 METAR KFKL 222003Z AUTO VRB03KT 10SM BKN029 15/09 A3025 RMK AO2 =
2018-09-22 15:56 METAR KFKL 221956Z AUTO 00000KT 10SM SCT029 14/08 A3025 RMK AO2 SLP244 T01440083
                 =
2018-09-22 15:27 METAR KFKL 221927Z AUTO 00000KT 10SM FEW028 15/08 A3025 RMK AO2 =
2018-09-22 14:56 METAR KFKL 221856Z AUTO 00000KT 10SM OVC028 14/08 A3025 RMK AO2 SLP245 T01440083
                 =
2018-09-22 13:56 METAR KFKL 221756Z AUTO 00000KT 10SM OVC028 14/08 A3027 RMK AO2 SLP248 6////
                 T01440083 10144 20111 58007 =
2018-09-22 12:56 METAR KFKL 221656Z AUTO VRB04KT 10SM OVC026 14/08 A3028 RMK AO2 SLP252 T01390083
                 =
2018-09-22 11:56 METAR KFKL 221556Z AUTO 35005KT 10SM OVC021 13/08 A3029 RMK AO2 SLP257 T01280083
                 =
2018-09-22 10:56 METAR KFKL 221456Z AUTO 03007KT 10SM OVC023 13/08 A3029 RMK AO2 SLP255 T01280083
                 53013 =
2018-09-22 09:56 METAR KFKL 221356Z AUTO 01004KT 10SM OVC023 12/08 A3026 RMK AO2 SLP247 T01170083
                 =
2018-09-22 08:56 METAR KFKL 221256Z AUTO 02005KT 10SM OVC025 11/08 A3025 RMK AO2 SLP243 T01110083
                 =
2018-09-22 08:37 METAR KFKL 221237Z AUTO 02005KT 10SM BKN027 11/08 A3025 RMK AO2 =
2018-09-22 07:56 METAR KFKL 221156Z AUTO 00000KT 10SM CLR 11/08 A3025 RMK AO2 SLP242 6//// 7////
                 T01110078 10156 20106 53024 =
2018-09-22 06:56 METAR KFKL 221056Z AUTO 01009KT 10SM CLR 11/08 A3022 RMK AO2 SLP232 T01110083 =
2018-09-22 05:56 METAR KFKL 220956Z AUTO 01007KT 10SM FEW023 12/09 A3020 RMK AO2 SLP222 T01220089
                 =
2018-09-22 05:48 METAR KFKL 220948Z AUTO 36008KT 320V030 10SM SCT021 13/09 A3020 RMK AO2 =
2018-09-22 04:56 METAR KFKL 220856Z AUTO VRB05KT 10SM OVC021 14/11 A3018 RMK AO2 SLP211 6////
                 T01390106 53015 =
2018-09-22 04:39 METAR KFKL 220839Z AUTO 35007KT 300V020 10SM BKN023 14/12 A3017 RMK AO2 =
2018-09-22 03:56 METAR KFKL 220756Z AUTO VRB05KT 10SM CLR 14/12 A3015 RMK AO2 SLP203 T01390117 =
2018-09-22 02:56 METAR KFKL 220656Z AUTO 31005KT 10SM CLR 14/12 A3015 RMK AO2 SLP201 T01440117 =
2018-09-22 01:56 METAR KFKL 220556Z AUTO VRB06KT 10SM CLR 16/12 A3013 RMK AO2 SLP194 60000
                 T01560117 10211 20156 51026 =
2018-09-22 00:56 METAR KFKL 220456Z AUTO 31005KT 10SM CLR 17/13 A3010 RMK AO2 SLP186 T01670128
                 402940167 =

Support USWX by starting your Amazon purchase here.